Woodstock, Ohio
Current Conditions -  °F | °C
As of 7:54 PM on Friday 24 Oct 2014 (Local Time) from KMRT Reporting Station
Clear Clear  
Wind Chill: 48°   Ceiling: Unl
Heat Index: 50°   Visibility: 10mi
Dew Point: 37°   Wind: 5mph
Humidity: 62%   Direction: 220°SW
Pressure: 30.03"   Gusts: NA
Location:  40.17°N, 83.53°W
Report Text: KMRT 242354Z AUTO 22004KT 10SM CLR 10/03 A3003 RMK AO2 T00990030 10182 20099
Loading
Personal Weather Stations






























Interactive Weather Map
Tropical Storm Tracking
New forecast layout! Learn more

10-Day Weather Forecast

Advertisements
Track Severe Weather on mobile